78PN weather

Farmington Township Airpark Heliport
Leeper, Pennsylvania, United States

Public forecast

Using degrees Fahrenheit for public forecast. Weather courtesy of forecast.io.

Closest aviation weather report (METAR) to Farmington Township Airpark Heliport

Closest report is DuBois Regional Airport, 21.8 nm (40.4 km) ESE. Retrieved 2020/07/09 16:53 UTC (37 minutes ago):

KDUJ 091653Z AUTO 17005KT 10SM SCT045 31/19 A3002 RMK AO2 SLP149 T03060189

Closest aviation forecast (TAF) to Farmington Township Airpark Heliport

Closest forecast is DuBois Regional Airport, 21.8 nm (40.4 km) ESE. Retrieved 2020/07/09 12:40 UTC (5 hours ago):

TAF KDUJ 091138Z 0912/1012 VRB04KT P6SM FEW050 FM092000 16005KT P6SM VCTS SCT050CB FM100000 12003KT P6SM SCT070